sensor_id;sensor_type;location;lat;lon;timestamp;pressure;altitude;pressure_sealevel;temperature;humidity
40205;BME280;26963;42.666;23.366;2023-02-14T00:00:03;96265.13;;;4.47;50.09
40205;BME280;26963;42.666;23.366;2023-02-14T00:02:29;96343.22;;;5.06;49.67
40205;BME280;26963;42.666;23.366;2023-02-14T00:04:54;96302.69;;;4.81;49.70
40205;BME280;26963;42.666;23.366;2023-02-14T00:07:20;96247.63;;;4.46;49.46
40205;BME280;26963;42.666;23.366;2023-02-14T00:09:45;96310.00;;;4.85;49.43
40205;BME280;26963;42.666;23.366;2023-02-14T00:12:11;96298.00;;;4.83;49.59
40205;BME280;26963;42.666;23.366;2023-02-14T00:14:37;96340.13;;;5.10;49.58
40205;BME280;26963;42.666;23.366;2023-02-14T00:17:21;96251.81;;;4.53;49.39
40205;BME280;26963;42.666;23.366;2023-02-14T00:19:46;96356.19;;;5.15;49.42
40205;BME280;26963;42.666;23.366;2023-02-14T00:22:12;96351.91;;;5.14;49.01
40205;BME280;26963;42.666;23.366;2023-02-14T00:24:38;96356.78;;;5.17;49.45
40205;BME280;26963;42.666;23.366;2023-02-14T00:27:03;96327.00;;;4.96;49.21
40205;BME280;26963;42.666;23.366;2023-02-14T00:29:31;96348.00;;;5.16;49.44
40205;BME280;26963;42.666;23.366;2023-02-14T00:31:57;96344.69;;;5.21;49.39
40205;BME280;26963;42.666;23.366;2023-02-14T00:34:23;96336.13;;;5.19;49.59
40205;BME280;26963;42.666;23.366;2023-02-14T00:36:49;96336.13;;;5.19;49.72
40205;BME280;26963;42.666;23.366;2023-02-14T00:39:16;96333.47;;;5.19;49.31
40205;BME280;26963;42.666;23.366;2023-02-14T00:41:42;96292.81;;;5.06;49.39
40205;BME280;26963;42.666;23.366;2023-02-14T00:44:08;96352.59;;;5.39;49.40
40205;BME280;26963;42.666;23.366;2023-02-14T00:46:34;96334.81;;;5.28;49.25
40205;BME280;26963;42.666;23.366;2023-02-14T00:49:00;96339.19;;;5.34;49.54
40205;BME280;26963;42.666;23.366;2023-02-14T00:51:26;96338.31;;;5.41;49.53
40205;BME280;26963;42.666;23.366;2023-02-14T00:53:52;96305.91;;;5.20;49.67
40205;BME280;26963;42.666;23.366;2023-02-14T00:56:18;96312.25;;;5.19;49.41
40205;BME280;26963;42.666;23.366;2023-02-14T00:58:44;96322.09;;;5.30;49.41
40205;BME280;26963;42.666;23.366;2023-02-14T01:01:11;96315.53;;;5.33;49.46
40205;BME280;26963;42.666;23.366;2023-02-14T01:03:37;96296.78;;;5.16;49.81
40205;BME280;26963;42.666;23.366;2023-02-14T01:06:03;96305.03;;;5.26;49.56
40205;BME280;26963;42.666;23.366;2023-02-14T01:08:29;96307.81;;;5.31;49.85
40205;BME280;26963;42.666;23.366;2023-02-14T01:10:55;96303.41;;;5.25;49.73
40205;BME280;26963;42.666;23.366;2023-02-14T01:13:20;96310.00;;;5.34;49.41
40205;BME280;26963;42.666;23.366;2023-02-14T01:15:50;96211.91;;;4.67;49.47
40205;BME280;26963;42.666;23.366;2023-02-14T01:18:17;96314.28;;;5.35;49.62
40205;BME280;26963;42.666;23.366;2023-02-14T01:20:44;96302.59;;;5.25;49.62
40205;BME280;26963;42.666;23.366;2023-02-14T01:23:10;96306.66;;;5.27;49.68
40205;BME280;26963;42.666;23.366;2023-02-14T01:25:36;96289.53;;;5.23;49.72
40205;BME280;26963;42.666;23.366;2023-02-14T01:28:03;96291.75;;;5.26;49.34
40205;BME280;26963;42.666;23.366;2023-02-14T01:30:29;96254.72;;;5.01;49.67
40205;BME280;26963;42.666;23.366;2023-02-14T01:32:54;96292.78;;;5.25;49.56
40205;BME280;26963;42.666;23.366;2023-02-14T01:35:20;96301.91;;;5.29;49.67
40205;BME280;26963;42.666;23.366;2023-02-14T01:37:46;96276.72;;;5.20;49.41
40205;BME280;26963;42.666;23.366;2023-02-14T01:40:12;96285.97;;;5.29;49.61
40205;BME280;26963;42.666;23.366;2023-02-14T01:42:38;96224.38;;;4.97;49.50
40205;BME280;26963;42.666;23.366;2023-02-14T01:47:37;96268.63;;;5.15;49.47
40205;BME280;26963;42.666;23.366;2023-02-14T01:50:09;96141.78;;;4.32;49.79
40205;BME280;26963;42.666;23.366;2023-02-14T01:52:38;96270.13;;;5.11;49.71
40205;BME280;26963;42.666;23.366;2023-02-14T01:55:09;96192.84;;;4.58;49.82
40205;BME280;26963;42.666;23.366;2023-02-14T01:57:49;96244.22;;;4.94;49.66
40205;BME280;26963;42.666;23.366;2023-02-14T02:00:16;96140.03;;;4.26;50.46
40205;BME280;26963;42.666;23.366;2023-02-14T02:03:02;96252.03;;;4.89;50.30
40205;BME280;26963;42.666;23.366;2023-02-14T02:05:29;96266.59;;;4.98;50.15
40205;BME280;26963;42.666;23.366;2023-02-14T02:07:58;96232.50;;;4.83;50.08
40205;BME280;26963;42.666;23.366;2023-02-14T02:10:24;96234.56;;;4.81;50.30
40205;BME280;26963;42.666;23.366;2023-02-14T02:12:52;96246.72;;;4.89;49.87
40205;BME280;26963;42.666;23.366;2023-02-14T02:15:20;96159.72;;;4.30;49.95
40205;BME280;26963;42.666;23.366;2023-02-14T02:18:02;96267.19;;;5.00;49.78
40205;BME280;26963;42.666;23.366;2023-02-14T02:20:59;96275.72;;;5.02;50.07
40205;BME280;26963;42.666;23.366;2023-02-14T02:34:35;96242.72;;;4.98;49.96
40205;BME280;26963;42.666;23.366;2023-02-14T02:43:42;96222.25;;;5.05;49.73
40205;BME280;26963;42.666;23.366;2023-02-14T02:46:19;96222.44;;;5.04;49.53
40205;BME280;26963;42.666;23.366;2023-02-14T02:49:07;96222.44;;;5.04;49.66
40205;BME280;26963;42.666;23.366;2023-02-14T02:51:52;96175.66;;;4.79;49.96
40205;BME280;26963;42.666;23.366;2023-02-14T02:54:45;96149.16;;;4.61;49.86
40205;BME280;26963;42.666;23.366;2023-02-14T02:57:18;96219.00;;;5.03;49.89
40205;BME280;26963;42.666;23.366;2023-02-14T02:59:46;96223.25;;;5.04;49.61
40205;BME280;26963;42.666;23.366;2023-02-14T03:02:20;96232.63;;;5.07;49.76
40205;BME280;26963;42.666;23.366;2023-02-14T03:04:50;96237.09;;;5.06;49.57
40205;BME280;26963;42.666;23.366;2023-02-14T03:07:29;96231.78;;;5.06;49.84
40205;BME280;26963;42.666;23.366;2023-02-14T03:10:18;96155.72;;;4.58;49.72
40205;BME280;26963;42.666;23.366;2023-02-14T03:13:13;96235.94;;;5.02;49.42
40205;BME280;26963;42.666;23.366;2023-02-14T03:21:46;96212.69;;;4.86;50.08
40205;BME280;26963;42.666;23.366;2023-02-14T03:27:05;96128.22;;;4.40;49.93
40205;BME280;26963;42.666;23.366;2023-02-14T03:34:50;96195.88;;;4.92;49.88
40205;BME280;26963;42.666;23.366;2023-02-14T03:40:28;96198.53;;;4.92;50.08
40205;BME280;26963;42.666;23.366;2023-02-14T03:42:59;96209.13;;;4.92;49.89
40205;BME280;26963;42.666;23.366;2023-02-14T03:46:02;96046.53;;;3.88;50.01
40205;BME280;26963;42.666;23.366;2023-02-14T03:48:28;96194.94;;;4.86;49.65
40205;BME280;26963;42.666;23.366;2023-02-14T03:50:56;96131.75;;;4.53;49.73
40205;BME280;26963;42.666;23.366;2023-02-14T03:53:26;96185.72;;;4.89;50.02
40205;BME280;26963;42.666;23.366;2023-02-14T03:56:13;96191.84;;;4.89;49.94
40205;BME280;26963;42.666;23.366;2023-02-14T03:58:47;95990.22;;;3.63;50.28
40205;BME280;26963;42.666;23.366;2023-02-14T04:03:44;96057.53;;;4.04;49.69
40205;BME280;26963;42.666;23.366;2023-02-14T04:06:11;96139.41;;;4.61;49.87
40205;BME280;26963;42.666;23.366;2023-02-14T04:08:37;96136.56;;;4.56;49.98
40205;BME280;26963;42.666;23.366;2023-02-14T04:11:03;96156.69;;;4.64;50.06
40205;BME280;26963;42.666;23.366;2023-02-14T04:13:29;96049.69;;;3.97;49.92
40205;BME280;26963;42.666;23.366;2023-02-14T04:15:55;96158.97;;;4.60;50.09
40205;BME280;26963;42.666;23.366;2023-02-14T04:18:20;96178.22;;;4.67;50.38
40205;BME280;26963;42.666;23.366;2023-02-14T04:21:04;96174.00;;;4.66;50.28
40205;BME280;26963;42.666;23.366;2023-02-14T04:23:30;96170.16;;;4.62;50.09
40205;BME280;26963;42.666;23.366;2023-02-14T04:25:56;96159.63;;;4.55;50.13
40205;BME280;26963;42.666;23.366;2023-02-14T04:28:21;96176.31;;;4.74;50.14
40205;BME280;26963;42.666;23.366;2023-02-14T04:30:47;96174.81;;;4.79;50.12
40205;BME280;26963;42.666;23.366;2023-02-14T04:33:13;96175.88;;;4.78;49.69
40205;BME280;26963;42.666;23.366;2023-02-14T04:35:38;96138.88;;;4.52;49.96
40205;BME280;26963;42.666;23.366;2023-02-14T04:38:04;96160.94;;;4.65;49.97
40205;BME280;26963;42.666;23.366;2023-02-14T04:40:30;96154.56;;;4.54;49.98
40205;BME280;26963;42.666;23.366;2023-02-14T04:42:56;96111.00;;;4.31;50.01
40205;BME280;26963;42.666;23.366;2023-02-14T04:45:21;96086.53;;;4.17;50.15
40205;BME280;26963;42.666;23.366;2023-02-14T04:47:47;96090.38;;;4.03;50.04
40205;BME280;26963;42.666;23.366;2023-02-14T04:50:13;96142.38;;;4.16;48.83
40205;BME280;26963;42.666;23.366;2023-02-14T04:52:39;96079.25;;;3.57;51.40
40205;BME280;26963;42.666;23.366;2023-02-14T04:55:05;96017.59;;;3.13;52.90
40205;BME280;26963;42.666;23.366;2023-02-14T04:57:31;96132.66;;;3.72;53.02
40205;BME280;26963;42.666;23.366;2023-02-14T04:59:56;96101.09;;;3.52;52.97
40205;BME280;26963;42.666;23.366;2023-02-14T05:02:22;96062.84;;;3.30;52.63
40205;BME280;26963;42.666;23.366;2023-02-14T05:04:47;96156.34;;;3.86;52.88
40205;BME280;26963;42.666;23.366;2023-02-14T05:07:13;96164.88;;;3.88;53.07
40205;BME280;26963;42.666;23.366;2023-02-14T05:09:38;96157.72;;;3.88;52.95
40205;BME280;26963;42.666;23.366;2023-02-14T05:12:04;96136.69;;;3.75;52.65
40205;BME280;26963;42.666;23.366;2023-02-14T05:14:30;96119.69;;;3.64;53.12
40205;BME280;26963;42.666;23.366;2023-02-14T05:16:55;96145.97;;;3.84;53.07
40205;BME280;26963;42.666;23.366;2023-02-14T05:19:22;96122.06;;;3.72;52.89
40205;BME280;26963;42.666;23.366;2023-02-14T05:21:47;96077.47;;;3.51;53.03
40205;BME280;26963;42.666;23.366;2023-02-14T05:24:13;96136.78;;;3.87;52.94
40205;BME280;26963;42.666;23.366;2023-02-14T05:26:39;96136.47;;;3.95;52.63
40205;BME280;26963;42.666;23.366;2023-02-14T05:29:05;96124.13;;;3.89;53.24
40205;BME280;26963;42.666;23.366;2023-02-14T05:31:30;96130.38;;;3.95;52.96
40205;BME280;26963;42.666;23.366;2023-02-14T05:33:56;96145.75;;;4.04;52.74
40205;BME280;26963;42.666;23.366;2023-02-14T05:36:21;96137.69;;;3.99;53.06
40205;BME280;26963;42.666;23.366;2023-02-14T05:38:47;96008.22;;;3.17;52.29
40205;BME280;26963;42.666;23.366;2023-02-14T05:41:12;96112.94;;;3.87;52.23
40205;BME280;26963;42.666;23.366;2023-02-14T05:43:38;96146.84;;;4.15;52.03
40205;BME280;26963;42.666;23.366;2023-02-14T05:46:03;96121.41;;;3.96;52.42
40205;BME280;26963;42.666;23.366;2023-02-14T05:48:29;96089.41;;;3.79;52.53
40205;BME280;26963;42.666;23.366;2023-02-14T05:50:55;96047.72;;;3.55;52.17
40205;BME280;26963;42.666;23.366;2023-02-14T05:53:22;96080.44;;;3.80;52.15
40205;BME280;26963;42.666;23.366;2023-02-14T05:55:47;96081.25;;;3.80;51.92
40205;BME280;26963;42.666;23.366;2023-02-14T05:58:13;96138.91;;;4.15;52.12
40205;BME280;26963;42.666;23.366;2023-02-14T06:00:39;96123.91;;;4.09;52.00
40205;BME280;26963;42.666;23.366;2023-02-14T06:03:04;96075.16;;;3.98;54.41
40205;BME280;26963;42.666;23.366;2023-02-14T06:05:30;96136.16;;;4.59;53.77
40205;BME280;26963;42.666;23.366;2023-02-14T06:07:55;96134.72;;;4.75;51.80
40205;BME280;26963;42.666;23.366;2023-02-14T06:10:23;95914.34;;;3.45;50.76
40205;BME280;26963;42.666;23.366;2023-02-14T06:12:52;96146.47;;;5.10;50.24
40205;BME280;26963;42.666;23.366;2023-02-14T06:15:18;96130.97;;;5.06;49.98
40205;BME280;26963;42.666;23.366;2023-02-14T06:17:44;96113.66;;;4.92;49.71
40205;BME280;26963;42.666;23.366;2023-02-14T06:20:11;96146.47;;;5.10;49.62
40205;BME280;26963;42.666;23.366;2023-02-14T06:22:37;96154.81;;;5.25;49.45
40205;BME280;26963;42.666;23.366;2023-02-14T06:25:04;96136.94;;;5.32;49.27
40205;BME280;26963;42.666;23.366;2023-02-14T06:27:30;96147.91;;;5.48;48.59
40205;BME280;26963;42.666;23.366;2023-02-14T06:29:56;96150.22;;;5.56;48.47
40205;BME280;26963;42.666;23.366;2023-02-14T06:32:22;96128.50;;;5.35;48.77
40205;BME280;26963;42.666;23.366;2023-02-14T06:34:47;96151.59;;;5.47;49.19
40205;BME280;26963;42.666;23.366;2023-02-14T06:37:13;96136.22;;;5.37;48.86
40205;BME280;26963;42.666;23.366;2023-02-14T06:39:39;96120.88;;;5.51;48.22
40205;BME280;26963;42.666;23.366;2023-02-14T06:42:04;96146.06;;;5.84;47.83
40205;BME280;26963;42.666;23.366;2023-02-14T06:44:30;96143.06;;;5.92;47.92
40205;BME280;26963;42.666;23.366;2023-02-14T06:46:55;96125.06;;;5.82;47.57
40205;BME280;26963;42.666;23.366;2023-02-14T06:49:21;96060.44;;;5.53;47.39
40205;BME280;26963;42.666;23.366;2023-02-14T06:51:46;96140.31;;;6.11;47.34
40205;BME280;26963;42.666;23.366;2023-02-14T06:54:12;96126.19;;;6.22;46.52
40205;BME280;26963;42.666;23.366;2023-02-14T06:56:38;96042.13;;;5.92;46.30
40205;BME280;26963;42.666;23.366;2023-02-14T06:59:03;96074.63;;;6.23;46.26
40205;BME280;26963;42.666;23.366;2023-02-14T07:01:29;96140.97;;;6.71;46.07
40205;BME280;26963;42.666;23.366;2023-02-14T07:03:54;95986.50;;;5.74;45.95
40205;BME280;26963;42.666;23.366;2023-02-14T07:06:20;96108.28;;;6.58;45.74
40205;BME280;26963;42.666;23.366;2023-02-14T07:08:45;96121.84;;;6.74;45.99
40205;BME280;26963;42.666;23.366;2023-02-14T07:11:11;96105.38;;;6.89;45.89
40205;BME280;26963;42.666;23.366;2023-02-14T07:13:37;96107.41;;;6.98;45.79
40205;BME280;26963;42.666;23.366;2023-02-14T07:16:02;96067.69;;;6.63;44.99
40205;BME280;26963;42.666;23.366;2023-02-14T07:18:28;96109.03;;;6.99;44.97
40205;BME280;26963;42.666;23.366;2023-02-14T07:20:53;96123.44;;;7.04;45.36
40205;BME280;26963;42.666;23.366;2023-02-14T07:23:19;96114.25;;;7.11;45.38
40205;BME280;26963;42.666;23.366;2023-02-14T07:25:44;96102.88;;;6.99;45.76
40205;BME280;26963;42.666;23.366;2023-02-14T07:28:10;96128.50;;;6.88;45.88
40205;BME280;26963;42.666;23.366;2023-02-14T07:30:35;96124.47;;;6.85;46.65
40205;BME280;26963;42.666;23.366;2023-02-14T07:33:01;96114.13;;;6.72;46.82
40205;BME280;26963;42.666;23.366;2023-02-14T07:35:27;96113.75;;;6.80;47.10
40205;BME280;26963;42.666;23.366;2023-02-14T07:37:52;96123.97;;;6.89;47.19
40205;BME280;26963;42.666;23.366;2023-02-14T07:40:18;96124.69;;;6.84;47.64
40205;BME280;26963;42.666;23.366;2023-02-14T07:42:51;96110.25;;;6.80;47.53
40205;BME280;26963;42.666;23.366;2023-02-14T07:45:16;96132.22;;;6.87;48.28
40205;BME280;26963;42.666;23.366;2023-02-14T07:47:42;96134.44;;;6.78;48.38
40205;BME280;26963;42.666;23.366;2023-02-14T07:50:07;96079.50;;;6.26;48.82
40205;BME280;26963;42.666;23.366;2023-02-14T07:52:33;96154.97;;;6.66;48.71
40205;BME280;26963;42.666;23.366;2023-02-14T07:54:59;96109.38;;;6.04;47.80
40205;BME280;26963;42.666;23.366;2023-02-14T07:57:27;96084.06;;;5.78;50.77
40205;BME280;26963;42.666;23.366;2023-02-14T07:59:53;96087.91;;;5.70;51.31
40205;BME280;26963;42.666;23.366;2023-02-14T08:02:18;96174.47;;;6.19;51.85
40205;BME280;26963;42.666;23.366;2023-02-14T08:04:45;96135.34;;;5.91;51.89
40205;BME280;26963;42.666;23.366;2023-02-14T08:07:10;96061.25;;;5.30;51.96
40205;BME280;26963;42.666;23.366;2023-02-14T08:09:36;96163.28;;;5.93;52.16
40205;BME280;26963;42.666;23.366;2023-02-14T08:12:01;96112.38;;;5.49;52.06
40205;BME280;26963;42.666;23.366;2023-02-14T08:14:46;96129.31;;;5.60;52.48
40205;BME280;26963;42.666;23.366;2023-02-14T08:17:11;96091.22;;;5.30;52.51
40205;BME280;26963;42.666;23.366;2023-02-14T08:19:38;96175.53;;;5.94;52.18
40205;BME280;26963;42.666;23.366;2023-02-14T08:22:04;96120.69;;;5.64;52.10
40205;BME280;26963;42.666;23.366;2023-02-14T08:24:31;96177.72;;;5.97;51.87
40205;BME280;26963;42.666;23.366;2023-02-14T08:26:57;96184.28;;;5.95;52.19
40205;BME280;26963;42.666;23.366;2023-02-14T08:29:23;96099.31;;;5.23;52.40
40205;BME280;26963;42.666;23.366;2023-02-14T08:31:48;96108.91;;;5.36;53.13
40205;BME280;26963;42.666;23.366;2023-02-14T08:34:15;96171.50;;;6.03;52.50
40205;BME280;26963;42.666;23.366;2023-02-14T08:36:41;96119.50;;;5.84;51.54
40205;BME280;26963;42.666;23.366;2023-02-14T08:39:07;96150.94;;;6.11;52.05
40205;BME280;26963;42.666;23.366;2023-02-14T08:41:33;96169.16;;;6.19;51.79
40205;BME280;26963;42.666;23.366;2023-02-14T08:43:58;96107.38;;;5.76;51.76
40205;BME280;26963;42.666;23.366;2023-02-14T08:46:24;96193.91;;;6.08;51.77
40205;BME280;26963;42.666;23.366;2023-02-14T08:48:50;96179.00;;;6.07;52.00
40205;BME280;26963;42.666;23.366;2023-02-14T08:51:18;96086.06;;;5.59;51.79
40205;BME280;26963;42.666;23.366;2023-02-14T08:53:43;96183.03;;;6.21;51.61
40205;BME280;26963;42.666;23.366;2023-02-14T08:56:13;96106.94;;;5.67;51.79
40205;BME280;26963;42.666;23.366;2023-02-14T08:58:39;96111.78;;;5.70;51.87
40205;BME280;26963;42.666;23.366;2023-02-14T09:01:08;96150.69;;;5.77;52.50
40205;BME280;26963;42.666;23.366;2023-02-14T09:03:34;96187.91;;;6.00;53.05
40205;BME280;26963;42.666;23.366;2023-02-14T09:06:08;96190.19;;;5.97;52.78
40205;BME280;26963;42.666;23.366;2023-02-14T09:08:35;96075.56;;;5.52;52.58
40205;BME280;26963;42.666;23.366;2023-02-14T09:13:36;96159.94;;;6.10;52.58
40205;BME280;26963;42.666;23.366;2023-02-14T09:16:04;96158.22;;;6.03;53.24
40205;BME280;26963;42.666;23.366;2023-02-14T09:18:29;96109.72;;;5.72;52.90
40205;BME280;26963;42.666;23.366;2023-02-14T09:20:55;96106.59;;;5.64;53.12
40205;BME280;26963;42.666;23.366;2023-02-14T09:23:20;96077.50;;;5.45;53.50
40205;BME280;26963;42.666;23.366;2023-02-14T09:25:46;96149.78;;;5.83;53.57
40205;BME280;26963;42.666;23.366;2023-02-14T09:28:29;96161.66;;;6.04;52.82
40205;BME280;26963;42.666;23.366;2023-02-14T09:31:32;96112.59;;;5.83;52.80
40205;BME280;26963;42.666;23.366;2023-02-14T09:33:57;96168.47;;;6.12;53.09
40205;BME280;26963;42.666;23.366;2023-02-14T09:36:41;96043.34;;;5.25;52.72
40205;BME280;26963;42.666;23.366;2023-02-14T09:39:25;96073.81;;;5.34;53.42
40205;BME280;26963;42.666;23.366;2023-02-14T09:45:03;96072.44;;;5.44;53.03
40205;BME280;26963;42.666;23.366;2023-02-14T09:50:50;96152.31;;;6.01;53.17
40205;BME280;26963;42.666;23.366;2023-02-14T09:53:27;96141.44;;;5.91;53.36
40205;BME280;26963;42.666;23.366;2023-02-14T09:59:46;96140.75;;;6.19;52.10
40205;BME280;26963;42.666;23.366;2023-02-14T10:05:05;96130.13;;;6.08;52.25
40205;BME280;26963;42.666;23.366;2023-02-14T10:07:59;95947.75;;;4.84;52.51
40205;BME280;26963;42.666;23.366;2023-02-14T10:10:39;96144.94;;;6.03;52.52
40205;BME280;26963;42.666;23.366;2023-02-14T10:16:14;96118.22;;;6.10;52.02
40205;BME280;26963;42.666;23.366;2023-02-14T10:18:51;96131.97;;;6.19;52.06
40205;BME280;26963;42.666;23.366;2023-02-14T10:21:25;96063.06;;;5.77;52.65
40205;BME280;26963;42.666;23.366;2023-02-14T10:24:01;96134.88;;;6.17;52.02
40205;BME280;26963;42.666;23.366;2023-02-14T10:26:38;96103.13;;;6.11;52.41
40205;BME280;26963;42.666;23.366;2023-02-14T10:29:10;96069.97;;;6.01;51.50
40205;BME280;26963;42.666;23.366;2023-02-14T10:31:58;96121.28;;;6.43;51.41
40205;BME280;26963;42.666;23.366;2023-02-14T10:34:47;96110.66;;;6.43;51.84
40205;BME280;26963;42.666;23.366;2023-02-14T10:40:22;96115.19;;;6.30;51.07
40205;BME280;26963;42.666;23.366;2023-02-14T10:45:16;96104.66;;;6.35;50.70
40205;BME280;26963;42.666;23.366;2023-02-14T10:50:31;96112.44;;;6.25;51.84
40205;BME280;26963;42.666;23.366;2023-02-14T10:53:23;96112.47;;;6.13;51.22
40205;BME280;26963;42.666;23.366;2023-02-14T10:58:20;96064.44;;;6.03;51.21
40205;BME280;26963;42.666;23.366;2023-02-14T11:03:18;96108.97;;;6.25;51.25
40205;BME280;26963;42.666;23.366;2023-02-14T11:05:47;96108.16;;;6.24;51.45
40205;BME280;26963;42.666;23.366;2023-02-14T11:10:45;96081.66;;;6.00;51.74
40205;BME280;26963;42.666;23.366;2023-02-14T11:15:59;96106.16;;;6.31;51.04
40205;BME280;26963;42.666;23.366;2023-02-14T11:18:26;96093.81;;;6.25;51.62
40205;BME280;26963;42.666;23.366;2023-02-14T11:21:05;96081.72;;;6.17;50.76
40205;BME280;26963;42.666;23.366;2023-02-14T11:23:33;96084.41;;;6.06;51.00
40205;BME280;26963;42.666;23.366;2023-02-14T11:26:00;96087.97;;;6.11;51.07
40205;BME280;26963;42.666;23.366;2023-02-14T11:28:27;96079.75;;;6.25;49.99
40205;BME280;26963;42.666;23.366;2023-02-14T11:30:53;96082.84;;;6.33;49.92
40205;BME280;26963;42.666;23.366;2023-02-14T11:35:57;96038.19;;;6.07;50.26
40205;BME280;26963;42.666;23.366;2023-02-14T11:38:44;96053.19;;;6.13;50.24
40205;BME280;26963;42.666;23.366;2023-02-14T11:41:21;96086.47;;;6.44;49.72
40205;BME280;26963;42.666;23.366;2023-02-14T11:43:47;96076.78;;;6.38;48.84
40205;BME280;26963;42.666;23.366;2023-02-14T11:46:24;96084.53;;;6.40;49.33
40205;BME280;26963;42.666;23.366;2023-02-14T11:48:55;96061.56;;;6.33;49.34
40205;BME280;26963;42.666;23.366;2023-02-14T11:53:59;96038.00;;;6.25;49.44
40205;BME280;26963;42.666;23.366;2023-02-14T11:56:56;96056.03;;;6.52;47.96
40205;BME280;26963;42.666;23.366;2023-02-14T12:02:00;96055.09;;;6.58;48.09
40205;BME280;26963;42.666;23.366;2023-02-14T12:04:33;96035.38;;;6.42;48.27
40205;BME280;26963;42.666;23.366;2023-02-14T12:07:30;96040.16;;;6.40;48.18
40205;BME280;26963;42.666;23.366;2023-02-14T12:15:25;96015.69;;;6.55;47.78
40205;BME280;26963;42.666;23.366;2023-02-14T12:17:58;96030.44;;;6.63;47.62
40205;BME280;26963;42.666;23.366;2023-02-14T12:20:44;96043.00;;;6.67;48.13
40205;BME280;26963;42.666;23.366;2023-02-14T12:26:02;96020.47;;;6.87;46.88
40205;BME280;26963;42.666;23.366;2023-02-14T12:28:43;95993.53;;;6.83;47.07
40205;BME280;26963;42.666;23.366;2023-02-14T12:31:12;96020.78;;;7.08;47.18
40205;BME280;26963;42.666;23.366;2023-02-14T12:33:38;96013.38;;;7.10;46.92
40205;BME280;26963;42.666;23.366;2023-02-14T12:38:52;96032.25;;;7.25;46.47
40205;BME280;26963;42.666;23.366;2023-02-14T12:42:21;96025.75;;;7.38;46.64
40205;BME280;26963;42.666;23.366;2023-02-14T12:50:40;95995.16;;;7.18;47.39
40205;BME280;26963;42.666;23.366;2023-02-14T12:56:15;96025.94;;;7.71;45.85
40205;BME280;26963;42.666;23.366;2023-02-14T12:58:49;95971.59;;;7.10;46.22
40205;BME280;26963;42.666;23.366;2023-02-14T13:04:21;96024.97;;;7.38;46.83
40205;BME280;26963;42.666;23.366;2023-02-14T13:06:54;96023.75;;;7.45;46.58
40205;BME280;26963;42.666;23.366;2023-02-14T13:09:46;96025.44;;;7.51;45.91
40205;BME280;26963;42.666;23.366;2023-02-14T13:12:34;96024.31;;;7.47;46.59
40205;BME280;26963;42.666;23.366;2023-02-14T13:17:55;95980.16;;;6.95;47.25
40205;BME280;26963;42.666;23.366;2023-02-14T13:26:04;95965.00;;;6.96;47.08
40205;BME280;26963;42.666;23.366;2023-02-14T13:28:31;96019.66;;;7.21;47.16
40205;BME280;26963;42.666;23.366;2023-02-14T13:30:59;96004.19;;;7.00;47.50
40205;BME280;26963;42.666;23.366;2023-02-14T13:33:44;95954.63;;;6.60;48.26
40205;BME280;26963;42.666;23.366;2023-02-14T13:36:15;96014.59;;;7.02;48.55
40205;BME280;26963;42.666;23.366;2023-02-14T13:38:44;96013.84;;;7.07;48.35
40205;BME280;26963;42.666;23.366;2023-02-14T13:41:11;96009.34;;;7.07;48.34
40205;BME280;26963;42.666;23.366;2023-02-14T13:44:01;95995.75;;;6.87;48.12
40205;BME280;26963;42.666;23.366;2023-02-14T13:49:04;96017.75;;;6.82;49.41
40205;BME280;26963;42.666;23.366;2023-02-14T13:51:50;96008.53;;;6.90;48.09
40205;BME280;26963;42.666;23.366;2023-02-14T13:54:41;95946.06;;;6.58;48.19
40205;BME280;26963;42.666;23.366;2023-02-14T13:57:27;96015.81;;;6.94;48.25
40205;BME280;26963;42.666;23.366;2023-02-14T14:02:45;96028.22;;;6.72;48.95
40205;BME280;26963;42.666;23.366;2023-02-14T14:10:47;96018.19;;;6.79;48.49
40205;BME280;26963;42.666;23.366;2023-02-14T14:18:45;96000.38;;;6.45;49.91
40205;BME280;26963;42.666;23.366;2023-02-14T14:21:15;95938.47;;;6.16;49.02
40205;BME280;26963;42.666;23.366;2023-02-14T14:26:48;95941.75;;;6.23;48.80
40205;BME280;26963;42.666;23.366;2023-02-14T14:29:37;96013.88;;;6.73;48.91
40205;BME280;26963;42.666;23.366;2023-02-14T14:32:32;95998.69;;;6.56;49.85
40205;BME280;26963;42.666;23.366;2023-02-14T14:35:03;95991.09;;;6.48;49.88
40205;BME280;26963;42.666;23.366;2023-02-14T14:37:34;95970.88;;;6.47;49.78
40205;BME280;26963;42.666;23.366;2023-02-14T14:40:04;95990.66;;;6.68;49.47
40205;BME280;26963;42.666;23.366;2023-02-14T14:42:38;95977.41;;;6.56;49.98
40205;BME280;26963;42.666;23.366;2023-02-14T14:45:28;95990.63;;;6.51;50.04
40205;BME280;26963;42.666;23.366;2023-02-14T14:47:57;95985.69;;;6.43;50.34
40205;BME280;26963;42.666;23.366;2023-02-14T14:50:25;95992.22;;;6.52;49.56
40205;BME280;26963;42.666;23.366;2023-02-14T14:52:56;95957.13;;;6.50;49.38
40205;BME280;26963;42.666;23.366;2023-02-14T14:55:27;95985.16;;;6.58;49.54
40205;BME280;26963;42.666;23.366;2023-02-14T14:57:56;95992.91;;;6.59;50.01
40205;BME280;26963;42.666;23.366;2023-02-14T15:00:32;95992.56;;;6.39;50.49
40205;BME280;26963;42.666;23.366;2023-02-14T15:03:13;96005.34;;;6.42;50.06
40205;BME280;26963;42.666;23.366;2023-02-14T15:05:44;96006.09;;;6.54;49.93
40205;BME280;26963;42.666;23.366;2023-02-14T15:13:45;95986.06;;;6.17;50.40
40205;BME280;26963;42.666;23.366;2023-02-14T15:16:40;95885.63;;;5.45;50.53
40205;BME280;26963;42.666;23.366;2023-02-14T15:19:15;95993.22;;;6.17;50.90
40205;BME280;26963;42.666;23.366;2023-02-14T15:21:44;96016.78;;;6.42;50.04
40205;BME280;26963;42.666;23.366;2023-02-14T15:24:13;95996.88;;;6.28;50.27
40205;BME280;26963;42.666;23.366;2023-02-14T15:26:42;95987.91;;;6.17;50.45
40205;BME280;26963;42.666;23.366;2023-02-14T15:29:20;96004.81;;;6.11;50.70
40205;BME280;26963;42.666;23.366;2023-02-14T15:31:47;96003.66;;;5.95;51.00
40205;BME280;26963;42.666;23.366;2023-02-14T15:34:13;96019.69;;;6.12;50.92
40205;BME280;26963;42.666;23.366;2023-02-14T15:36:40;96004.22;;;6.09;50.40